sensor_id;sensor_type;location;lat;lon;timestamp;pressure;altitude;pressure_sealevel;temperature;humidity
6349;BME280;3207;42.648;23.406;2023-05-25T03:51:40;100394.53;;;19.86;nan
6349;BME280;3207;42.648;23.406;2023-05-25T04:21:04;100311.59;;;19.84;nan
6349;BME280;3207;42.648;23.406;2023-05-25T05:41:57;100407.88;;;21.08;nan
6349;BME280;3207;42.648;23.406;2023-05-25T05:59:11;100363.16;;;21.19;nan
6349;BME280;3207;42.648;23.406;2023-05-25T06:11:29;100417.84;;;21.69;nan
6349;BME280;3207;42.648;23.406;2023-05-25T07:05:30;100426.53;;;22.25;nan
6349;BME280;3207;42.648;23.406;2023-05-25T07:15:16;100433.97;;;22.60;nan
6349;BME280;3207;42.648;23.406;2023-05-25T07:17:45;100421.63;;;22.82;nan
6349;BME280;3207;42.648;23.406;2023-05-25T07:20:14;100421.41;;;23.21;nan
6349;BME280;3207;42.648;23.406;2023-05-25T07:22:41;100436.50;;;23.44;nan
6349;BME280;3207;42.648;23.406;2023-05-25T07:25:09;100425.69;;;23.60;nan
6349;BME280;3207;42.648;23.406;2023-05-25T07:27:36;100419.13;;;23.48;nan
6349;BME280;3207;42.648;23.406;2023-05-25T07:30:04;100419.81;;;23.50;nan
6349;BME280;3207;42.648;23.406;2023-05-25T07:32:31;100420.41;;;23.37;nan
6349;BME280;3207;42.648;23.406;2023-05-25T07:39:53;100417.59;;;24.04;nan
6349;BME280;3207;42.648;23.406;2023-05-25T07:42:20;100423.38;;;24.07;nan
6349;BME280;3207;42.648;23.406;2023-05-25T07:44:47;100429.91;;;24.05;nan
6349;BME280;3207;42.648;23.406;2023-05-25T07:49:40;100420.97;;;24.13;nan
6349;BME280;3207;42.648;23.406;2023-05-25T07:52:07;100420.75;;;24.29;nan
6349;BME280;3207;42.648;23.406;2023-05-25T07:54:36;100427.53;;;24.46;nan
6349;BME280;3207;42.648;23.406;2023-05-25T07:57:04;100424.34;;;24.85;nan
6349;BME280;3207;42.648;23.406;2023-05-25T07:59:32;100428.31;;;25.17;nan
6349;BME280;3207;42.648;23.406;2023-05-25T08:01:59;100429.34;;;25.16;nan
6349;BME280;3207;42.648;23.406;2023-05-25T08:04:26;100432.19;;;25.08;nan
6349;BME280;3207;42.648;23.406;2023-05-25T08:06:53;100445.44;;;25.23;nan
6349;BME280;3207;42.648;23.406;2023-05-25T08:09:20;100427.03;;;25.13;nan
6349;BME280;3207;42.648;23.406;2023-05-25T08:11:48;100433.16;;;25.35;nan
6349;BME280;3207;42.648;23.406;2023-05-25T08:14:15;100435.19;;;25.33;nan
6349;BME280;3207;42.648;23.406;2023-05-25T08:16:42;100437.69;;;25.34;nan
6349;BME280;3207;42.648;23.406;2023-05-25T08:19:08;100439.34;;;25.35;nan
6349;BME280;3207;42.648;23.406;2023-05-25T08:21:35;100443.88;;;25.35;nan
6349;BME280;3207;42.648;23.406;2023-05-25T08:24:04;100437.22;;;25.24;nan
6349;BME280;3207;42.648;23.406;2023-05-25T08:29:02;100451.00;;;25.56;nan
6349;BME280;3207;42.648;23.406;2023-05-25T08:31:30;100441.84;;;25.43;nan
6349;BME280;3207;42.648;23.406;2023-05-25T08:33:57;100436.38;;;25.24;nan
6349;BME280;3207;42.648;23.406;2023-05-25T08:36:25;100425.38;;;25.40;nan
6349;BME280;3207;42.648;23.406;2023-05-25T08:38:52;100427.19;;;25.67;nan
6349;BME280;3207;42.648;23.406;2023-05-25T08:41:19;100437.69;;;25.62;nan
6349;BME280;3207;42.648;23.406;2023-05-25T08:43:47;100433.38;;;25.68;nan
6349;BME280;3207;42.648;23.406;2023-05-25T08:46:23;100436.38;;;25.58;nan
6349;BME280;3207;42.648;23.406;2023-05-25T08:48:59;100429.16;;;25.52;nan
6349;BME280;3207;42.648;23.406;2023-05-25T08:51:35;100436.09;;;25.40;nan
6349;BME280;3207;42.648;23.406;2023-05-25T08:54:06;100443.94;;;25.48;nan
6349;BME280;3207;42.648;23.406;2023-05-25T08:56:36;100428.41;;;25.65;nan
6349;BME280;3207;42.648;23.406;2023-05-25T08:59:11;100405.75;;;25.61;nan
6349;BME280;3207;42.648;23.406;2023-05-25T09:01:45;100434.28;;;25.88;nan
6349;BME280;3207;42.648;23.406;2023-05-25T09:04:12;100437.97;;;25.87;nan
6349;BME280;3207;42.648;23.406;2023-05-25T09:06:39;100413.41;;;25.77;nan
6349;BME280;3207;42.648;23.406;2023-05-25T09:11:35;100442.13;;;25.96;nan
6349;BME280;3207;42.648;23.406;2023-05-25T09:16:34;100444.34;;;26.34;nan
6349;BME280;3207;42.648;23.406;2023-05-25T09:19:07;100446.03;;;26.48;nan
6349;BME280;3207;42.648;23.406;2023-05-25T09:24:01;100431.56;;;26.82;nan
6349;BME280;3207;42.648;23.406;2023-05-25T09:28:55;100428.69;;;26.83;nan
6349;BME280;3207;42.648;23.406;2023-05-25T09:31:22;100437.41;;;26.99;nan
6349;BME280;3207;42.648;23.406;2023-05-25T09:33:50;100436.94;;;27.15;nan
6349;BME280;3207;42.648;23.406;2023-05-25T09:36:21;100439.00;;;27.26;nan
6349;BME280;3207;42.648;23.406;2023-05-25T09:38:48;100429.91;;;27.27;nan
6349;BME280;3207;42.648;23.406;2023-05-25T09:41:15;100430.31;;;27.37;nan
6349;BME280;3207;42.648;23.406;2023-05-25T09:43:43;100440.59;;;27.53;nan
6349;BME280;3207;42.648;23.406;2023-05-25T09:46:10;100440.56;;;27.66;nan
6349;BME280;3207;42.648;23.406;2023-05-25T09:48:37;100431.91;;;27.64;nan
6349;BME280;3207;42.648;23.406;2023-05-25T09:51:05;100438.50;;;27.68;nan
6349;BME280;3207;42.648;23.406;2023-05-25T09:53:34;100447.22;;;27.64;nan
6349;BME280;3207;42.648;23.406;2023-05-25T09:56:01;100437.00;;;27.86;nan
6349;BME280;3207;42.648;23.406;2023-05-25T09:58:28;100432.56;;;27.98;nan
6349;BME280;3207;42.648;23.406;2023-05-25T10:00:55;100427.66;;;27.95;nan
6349;BME280;3207;42.648;23.406;2023-05-25T10:03:22;100433.63;;;27.97;nan
6349;BME280;3207;42.648;23.406;2023-05-25T10:05:49;100427.09;;;27.80;nan
6349;BME280;3207;42.648;23.406;2023-05-25T10:08:19;100429.09;;;27.91;nan
6349;BME280;3207;42.648;23.406;2023-05-25T10:10:49;100431.53;;;27.99;nan
6349;BME280;3207;42.648;23.406;2023-05-25T10:13:19;100431.91;;;28.09;nan
6349;BME280;3207;42.648;23.406;2023-05-25T10:15:47;100428.34;;;28.22;nan
6349;BME280;3207;42.648;23.406;2023-05-25T10:18:20;100442.69;;;28.40;nan
6349;BME280;3207;42.648;23.406;2023-05-25T10:20:55;100421.47;;;28.57;nan
6349;BME280;3207;42.648;23.406;2023-05-25T10:23:28;100422.81;;;28.41;nan
6349;BME280;3207;42.648;23.406;2023-05-25T10:26:02;100422.22;;;28.71;nan
6349;BME280;3207;42.648;23.406;2023-05-25T10:28:34;100420.63;;;28.32;nan
6349;BME280;3207;42.648;23.406;2023-05-25T10:31:02;100424.63;;;28.23;nan
6349;BME280;3207;42.648;23.406;2023-05-25T10:33:30;100411.88;;;28.05;nan
6349;BME280;3207;42.648;23.406;2023-05-25T10:35:57;100415.31;;;28.19;nan
6349;BME280;3207;42.648;23.406;2023-05-25T10:38:25;100416.53;;;28.54;nan
6349;BME280;3207;42.648;23.406;2023-05-25T10:40:53;100424.38;;;28.87;nan
6349;BME280;3207;42.648;23.406;2023-05-25T10:43:21;100419.91;;;28.99;nan
6349;BME280;3207;42.648;23.406;2023-05-25T10:45:48;100418.47;;;28.97;nan
6349;BME280;3207;42.648;23.406;2023-05-25T10:48:15;100418.56;;;29.08;nan
6349;BME280;3207;42.648;23.406;2023-05-25T10:50:48;100409.53;;;29.21;nan
6349;BME280;3207;42.648;23.406;2023-05-25T10:53:15;100397.09;;;29.02;nan
6349;BME280;3207;42.648;23.406;2023-05-25T10:55:49;100396.84;;;29.03;nan
6349;BME280;3207;42.648;23.406;2023-05-25T10:58:28;100393.16;;;29.23;nan
6349;BME280;3207;42.648;23.406;2023-05-25T11:00:59;100394.25;;;29.15;nan
6349;BME280;3207;42.648;23.406;2023-05-25T11:03:55;100392.25;;;28.92;nan
6349;BME280;3207;42.648;23.406;2023-05-25T11:06:23;100381.91;;;28.89;nan
6349;BME280;3207;42.648;23.406;2023-05-25T11:09:22;100390.59;;;28.91;nan
6349;BME280;3207;42.648;23.406;2023-05-25T11:12:03;100349.78;;;29.12;nan
6349;BME280;3207;42.648;23.406;2023-05-25T11:14:32;100375.06;;;28.62;nan
6349;BME280;3207;42.648;23.406;2023-05-25T11:17:05;100384.53;;;28.71;nan
6349;BME280;3207;42.648;23.406;2023-05-25T11:19:40;100373.22;;;28.87;nan
6349;BME280;3207;42.648;23.406;2023-05-25T11:22:14;100390.59;;;28.91;nan
6349;BME280;3207;42.648;23.406;2023-05-25T11:24:42;100363.97;;;29.01;nan
6349;BME280;3207;42.648;23.406;2023-05-25T11:27:10;100365.44;;;28.97;nan
6349;BME280;3207;42.648;23.406;2023-05-25T11:29:39;100377.88;;;29.17;nan
6349;BME280;3207;42.648;23.406;2023-05-25T11:32:11;100358.94;;;28.05;nan
6349;BME280;3207;42.648;23.406;2023-05-25T11:34:39;100361.22;;;28.02;nan
6349;BME280;3207;42.648;23.406;2023-05-25T11:37:12;100354.69;;;28.23;nan
6349;BME280;3207;42.648;23.406;2023-05-25T11:39:40;100361.22;;;28.33;nan
6349;BME280;3207;42.648;23.406;2023-05-25T11:42:08;100362.78;;;28.48;nan
6349;BME280;3207;42.648;23.406;2023-05-25T11:44:36;100357.44;;;28.41;nan
6349;BME280;3207;42.648;23.406;2023-05-25T11:47:06;100353.56;;;28.37;nan
6349;BME280;3207;42.648;23.406;2023-05-25T11:49:38;100353.22;;;28.52;nan
6349;BME280;3207;42.648;23.406;2023-05-25T11:52:06;100345.00;;;27.84;nan
6349;BME280;3207;42.648;23.406;2023-05-25T11:54:33;100348.59;;;28.02;nan
6349;BME280;3207;42.648;23.406;2023-05-25T11:57:01;100338.63;;;28.10;nan
6349;BME280;3207;42.648;23.406;2023-05-25T11:59:28;100350.56;;;28.20;nan
6349;BME280;3207;42.648;23.406;2023-05-25T12:01:56;100344.81;;;28.41;nan
6349;BME280;3207;42.648;23.406;2023-05-25T12:04:24;100347.97;;;28.38;nan
6349;BME280;3207;42.648;23.406;2023-05-25T12:06:51;100330.50;;;28.48;nan
6349;BME280;3207;42.648;23.406;2023-05-25T12:09:20;100338.69;;;28.59;nan
6349;BME280;3207;42.648;23.406;2023-05-25T12:11:47;100332.72;;;28.75;nan
6349;BME280;3207;42.648;23.406;2023-05-25T12:14:14;100323.13;;;28.86;nan
6349;BME280;3207;42.648;23.406;2023-05-25T12:16:41;100320.34;;;28.93;nan
6349;BME280;3207;42.648;23.406;2023-05-25T12:19:09;100329.63;;;28.97;nan
6349;BME280;3207;42.648;23.406;2023-05-25T12:21:39;100326.34;;;28.95;nan
6349;BME280;3207;42.648;23.406;2023-05-25T12:24:06;100325.44;;;29.01;nan
6349;BME280;3207;42.648;23.406;2023-05-25T12:26:46;100324.75;;;28.87;nan
6349;BME280;3207;42.648;23.406;2023-05-25T12:29:13;100312.75;;;28.65;nan
6349;BME280;3207;42.648;23.406;2023-05-25T12:31:40;100329.41;;;28.73;nan
6349;BME280;3207;42.648;23.406;2023-05-25T12:34:09;100296.03;;;29.18;nan
6349;BME280;3207;42.648;23.406;2023-05-25T12:36:47;100304.41;;;29.28;nan
6349;BME280;3207;42.648;23.406;2023-05-25T12:39:16;100310.66;;;29.58;nan
6349;BME280;3207;42.648;23.406;2023-05-25T12:41:48;100304.28;;;29.41;nan
6349;BME280;3207;42.648;23.406;2023-05-25T12:44:25;100298.50;;;29.67;nan
6349;BME280;3207;42.648;23.406;2023-05-25T12:46:53;100297.06;;;29.53;nan
6349;BME280;3207;42.648;23.406;2023-05-25T12:49:28;100289.16;;;29.40;nan
6349;BME280;3207;42.648;23.406;2023-05-25T12:52:00;100282.28;;;29.44;nan
6349;BME280;3207;42.648;23.406;2023-05-25T12:54:35;100288.09;;;29.04;nan
6349;BME280;3207;42.648;23.406;2023-05-25T12:57:10;100291.25;;;29.20;nan
6349;BME280;3207;42.648;23.406;2023-05-25T12:59:38;100282.88;;;29.09;nan
6349;BME280;3207;42.648;23.406;2023-05-25T13:02:05;100282.72;;;29.04;nan
6349;BME280;3207;42.648;23.406;2023-05-25T13:04:33;100287.28;;;29.04;nan
6349;BME280;3207;42.648;23.406;2023-05-25T13:07:01;100280.28;;;29.03;nan
6349;BME280;3207;42.648;23.406;2023-05-25T13:09:36;100261.19;;;28.68;nan
6349;BME280;3207;42.648;23.406;2023-05-25T13:12:03;100242.97;;;28.27;nan
6349;BME280;3207;42.648;23.406;2023-05-25T13:14:30;100269.25;;;28.25;nan
6349;BME280;3207;42.648;23.406;2023-05-25T13:16:57;100263.19;;;28.29;nan
6349;BME280;3207;42.648;23.406;2023-05-25T13:19:24;100249.66;;;28.18;nan
6349;BME280;3207;42.648;23.406;2023-05-25T13:21:52;100243.53;;;28.04;nan
6349;BME280;3207;42.648;23.406;2023-05-25T13:24:21;100249.75;;;28.04;nan
6349;BME280;3207;42.648;23.406;2023-05-25T13:26:49;100256.66;;;27.94;nan
6349;BME280;3207;42.648;23.406;2023-05-25T13:29:15;100253.38;;;28.17;nan
6349;BME280;3207;42.648;23.406;2023-05-25T13:31:42;100250.22;;;28.45;nan
6349;BME280;3207;42.648;23.406;2023-05-25T13:34:09;100249.34;;;28.51;nan
6349;BME280;3207;42.648;23.406;2023-05-25T13:36:36;100240.31;;;28.63;nan
6349;BME280;3207;42.648;23.406;2023-05-25T13:39:03;100228.16;;;28.79;nan
6349;BME280;3207;42.648;23.406;2023-05-25T13:41:33;100261.22;;;28.61;nan
6349;BME280;3207;42.648;23.406;2023-05-25T13:43:59;100218.69;;;28.52;nan
6349;BME280;3207;42.648;23.406;2023-05-25T13:46:26;100246.69;;;28.69;nan
6349;BME280;3207;42.648;23.406;2023-05-25T13:48:53;100228.59;;;28.58;nan
6349;BME280;3207;42.648;23.406;2023-05-25T13:51:20;100214.53;;;28.56;nan
6349;BME280;3207;42.648;23.406;2023-05-25T13:53:47;100232.91;;;28.77;nan
6349;BME280;3207;42.648;23.406;2023-05-25T13:56:14;100225.72;;;28.53;nan
6349;BME280;3207;42.648;23.406;2023-05-25T13:58:42;100216.22;;;28.50;nan
6349;BME280;3207;42.648;23.406;2023-05-25T14:01:09;100214.66;;;28.42;nan
6349;BME280;3207;42.648;23.406;2023-05-25T14:03:36;100219.88;;;28.13;nan
6349;BME280;3207;42.648;23.406;2023-05-25T14:06:04;100223.22;;;28.08;nan
6349;BME280;3207;42.648;23.406;2023-05-25T14:08:31;100207.16;;;28.01;nan
6349;BME280;3207;42.648;23.406;2023-05-25T14:10:58;100226.28;;;27.87;nan
6349;BME280;3207;42.648;23.406;2023-05-25T14:13:25;100204.63;;;27.57;nan
6349;BME280;3207;42.648;23.406;2023-05-25T14:15:53;100210.31;;;27.67;nan
6349;BME280;3207;42.648;23.406;2023-05-25T14:18:20;100223.84;;;27.85;nan
6349;BME280;3207;42.648;23.406;2023-05-25T14:20:47;100202.44;;;27.72;nan
6349;BME280;3207;42.648;23.406;2023-05-25T14:23:13;100207.41;;;27.75;nan
6349;BME280;3207;42.648;23.406;2023-05-25T14:25:43;100208.56;;;27.86;nan
6349;BME280;3207;42.648;23.406;2023-05-25T14:28:10;100194.78;;;27.38;nan
6349;BME280;3207;42.648;23.406;2023-05-25T14:30:37;100196.72;;;27.24;nan
6349;BME280;3207;42.648;23.406;2023-05-25T14:33:05;100182.19;;;27.07;nan
6349;BME280;3207;42.648;23.406;2023-05-25T14:35:32;100179.34;;;26.88;nan
6349;BME280;3207;42.648;23.406;2023-05-25T14:37:59;100184.03;;;27.06;nan
6349;BME280;3207;42.648;23.406;2023-05-25T14:40:25;100175.63;;;26.89;nan
6349;BME280;3207;42.648;23.406;2023-05-25T14:42:52;100182.44;;;26.99;nan
6349;BME280;3207;42.648;23.406;2023-05-25T14:45:20;100177.47;;;27.33;nan
6349;BME280;3207;42.648;23.406;2023-05-25T14:47:46;100185.63;;;27.52;nan
6349;BME280;3207;42.648;23.406;2023-05-25T14:50:15;100206.50;;;27.81;nan
6349;BME280;3207;42.648;23.406;2023-05-25T14:52:42;100174.25;;;28.06;nan
6349;BME280;3207;42.648;23.406;2023-05-25T14:55:11;100170.56;;;28.25;nan
6349;BME280;3207;42.648;23.406;2023-05-25T14:57:38;100173.41;;;28.30;nan
6349;BME280;3207;42.648;23.406;2023-05-25T15:00:06;100166.38;;;28.29;nan
6349;BME280;3207;42.648;23.406;2023-05-25T15:02:33;100177.78;;;28.50;nan
6349;BME280;3207;42.648;23.406;2023-05-25T15:05:00;100170.00;;;28.60;nan
6349;BME280;3207;42.648;23.406;2023-05-25T15:07:28;100163.53;;;28.61;nan
6349;BME280;3207;42.648;23.406;2023-05-25T15:09:55;100161.44;;;28.63;nan
6349;BME280;3207;42.648;23.406;2023-05-25T15:12:22;100157.41;;;28.54;nan
6349;BME280;3207;42.648;23.406;2023-05-25T15:14:49;100152.78;;;28.61;nan
6349;BME280;3207;42.648;23.406;2023-05-25T15:17:16;100135.13;;;28.65;nan
6349;BME280;3207;42.648;23.406;2023-05-25T15:19:42;100160.41;;;28.82;nan
6349;BME280;3207;42.648;23.406;2023-05-25T15:22:09;100163.91;;;29.01;nan
6349;BME280;3207;42.648;23.406;2023-05-25T15:24:37;100158.97;;;28.98;nan
6349;BME280;3207;42.648;23.406;2023-05-25T15:27:04;100159.88;;;28.92;nan
6349;BME280;3207;42.648;23.406;2023-05-25T15:29:31;100158.16;;;28.97;nan
6349;BME280;3207;42.648;23.406;2023-05-25T15:31:58;100161.06;;;28.96;nan
6349;BME280;3207;42.648;23.406;2023-05-25T15:34:25;100152.16;;;28.95;nan
6349;BME280;3207;42.648;23.406;2023-05-25T15:36:52;100145.59;;;28.73;nan
6349;BME280;3207;42.648;23.406;2023-05-25T15:39:18;100146.56;;;28.97;nan
6349;BME280;3207;42.648;23.406;2023-05-25T15:41:47;100147.81;;;28.94;nan
6349;BME280;3207;42.648;23.406;2023-05-25T15:44:13;100148.88;;;28.75;nan
6349;BME280;3207;42.648;23.406;2023-05-25T15:46:40;100142.03;;;28.79;nan
6349;BME280;3207;42.648;23.406;2023-05-25T15:49:07;100148.47;;;28.60;nan
6349;BME280;3207;42.648;23.406;2023-05-25T15:51:37;100143.50;;;28.75;nan
6349;BME280;3207;42.648;23.406;2023-05-25T15:54:06;100132.31;;;28.60;nan
6349;BME280;3207;42.648;23.406;2023-05-25T15:56:33;100141.28;;;28.35;nan
6349;BME280;3207;42.648;23.406;2023-05-25T16:01:28;100143.91;;;28.42;nan
6349;BME280;3207;42.648;23.406;2023-05-25T16:03:56;100152.19;;;28.40;nan
6349;BME280;3207;42.648;23.406;2023-05-25T16:06:23;100142.78;;;28.31;nan
6349;BME280;3207;42.648;23.406;2023-05-25T16:08:50;100136.16;;;28.09;nan
6349;BME280;3207;42.648;23.406;2023-05-25T16:11:16;100146.97;;;27.84;nan
6349;BME280;3207;42.648;23.406;2023-05-25T16:13:43;100173.31;;;27.38;nan
6349;BME280;3207;42.648;23.406;2023-05-25T16:16:11;100149.28;;;27.18;nan
6349;BME280;3207;42.648;23.406;2023-05-25T16:18:38;100137.16;;;27.09;nan
6349;BME280;3207;42.648;23.406;2023-05-25T16:21:05;100141.44;;;27.16;nan
6349;BME280;3207;42.648;23.406;2023-05-25T16:23:32;100137.09;;;27.22;nan
6349;BME280;3207;42.648;23.406;2023-05-25T16:25:59;100130.06;;;27.21;nan
6349;BME280;3207;42.648;23.406;2023-05-25T16:28:26;100133.78;;;27.20;nan
6349;BME280;3207;42.648;23.406;2023-05-25T16:30:52;100151.25;;;26.98;nan
6349;BME280;3207;42.648;23.406;2023-05-25T16:33:21;100136.63;;;26.93;nan
6349;BME280;3207;42.648;23.406;2023-05-25T16:35:48;100132.28;;;26.92;nan
6349;BME280;3207;42.648;23.406;2023-05-25T16:38:18;100113.78;;;26.71;nan
6349;BME280;3207;42.648;23.406;2023-05-25T16:40:44;100128.31;;;26.57;nan
6349;BME280;3207;42.648;23.406;2023-05-25T16:43:11;100132.81;;;26.70;nan
6349;BME280;3207;42.648;23.406;2023-05-25T16:45:38;100132.41;;;26.66;nan
6349;BME280;3207;42.648;23.406;2023-05-25T16:48:05;100137.00;;;26.46;nan
6349;BME280;3207;42.648;23.406;2023-05-25T16:50:33;100132.63;;;26.58;nan
6349;BME280;3207;42.648;23.406;2023-05-25T16:53:00;100134.03;;;26.67;nan
6349;BME280;3207;42.648;23.406;2023-05-25T16:55:26;100125.44;;;26.52;nan
6349;BME280;3207;42.648;23.406;2023-05-25T16:57:54;100133.22;;;26.67;nan
6349;BME280;3207;42.648;23.406;2023-05-25T17:00:21;100137.09;;;26.71;nan
6349;BME280;3207;42.648;23.406;2023-05-25T17:02:48;100119.72;;;26.35;nan
6349;BME280;3207;42.648;23.406;2023-05-25T17:05:14;100142.34;;;26.59;nan
6349;BME280;3207;42.648;23.406;2023-05-25T17:07:43;100140.47;;;26.53;nan
6349;BME280;3207;42.648;23.406;2023-05-25T17:10:10;100144.84;;;26.41;nan
6349;BME280;3207;42.648;23.406;2023-05-25T17:12:37;100158.91;;;26.30;nan
6349;BME280;3207;42.648;23.406;2023-05-25T17:15:04;100143.25;;;26.13;nan
6349;BME280;3207;42.648;23.406;2023-05-25T17:17:31;100145.16;;;25.80;nan
6349;BME280;3207;42.648;23.406;2023-05-25T17:19:58;100153.16;;;26.13;nan
6349;BME280;3207;42.648;23.406;2023-05-25T17:22:25;100147.13;;;26.17;nan
6349;BME280;3207;42.648;23.406;2023-05-25T17:24:53;100151.06;;;26.21;nan
6349;BME280;3207;42.648;23.406;2023-05-25T17:27:19;100159.31;;;26.27;nan
6349;BME280;3207;42.648;23.406;2023-05-25T17:29:46;100155.22;;;26.11;nan
6349;BME280;3207;42.648;23.406;2023-05-25T17:32:13;100161.81;;;26.08;nan
6349;BME280;3207;42.648;23.406;2023-05-25T17:34:40;100154.38;;;26.10;nan
6349;BME280;3207;42.648;23.406;2023-05-25T17:37:07;100160.78;;;26.09;nan
6349;BME280;3207;42.648;23.406;2023-05-25T17:39:33;100200.97;;;26.09;nan
6349;BME280;3207;42.648;23.406;2023-05-25T17:42:01;100188.41;;;26.10;nan
6349;BME280;3207;42.648;23.406;2023-05-25T17:44:28;100167.97;;;26.09;nan
6349;BME280;3207;42.648;23.406;2023-05-25T17:46:55;100161.63;;;26.03;nan
6349;BME280;3207;42.648;23.406;2023-05-25T17:49:22;100159.16;;;25.82;nan
6349;BME280;3207;42.648;23.406;2023-05-25T17:51:49;100161.44;;;25.72;nan
6349;BME280;3207;42.648;23.406;2023-05-25T17:54:16;100171.31;;;25.78;nan
6349;BME280;3207;42.648;23.406;2023-05-25T17:56:44;100165.13;;;25.77;nan
6349;BME280;3207;42.648;23.406;2023-05-25T17:59:12;100168.84;;;25.83;nan
6349;BME280;3207;42.648;23.406;2023-05-25T18:01:39;100167.59;;;25.79;nan
6349;BME280;3207;42.648;23.406;2023-05-25T18:04:06;100169.84;;;25.75;nan
6349;BME280;3207;42.648;23.406;2023-05-25T18:06:32;100171.72;;;25.62;nan
6349;BME280;3207;42.648;23.406;2023-05-25T18:11:28;100176.25;;;25.61;nan
6349;BME280;3207;42.648;23.406;2023-05-25T18:16:25;100177.66;;;25.57;nan
6349;BME280;3207;42.648;23.406;2023-05-25T18:18:52;100174.13;;;25.37;nan
6349;BME280;3207;42.648;23.406;2023-05-25T18:21:19;100183.63;;;25.46;nan
6349;BME280;3207;42.648;23.406;2023-05-25T18:23:46;100182.78;;;25.45;nan
6349;BME280;3207;42.648;23.406;2023-05-25T18:26:13;100199.47;;;25.47;nan
6349;BME280;3207;42.648;23.406;2023-05-25T18:28:43;100200.09;;;25.49;nan
6349;BME280;3207;42.648;23.406;2023-05-25T18:31:12;100202.56;;;25.44;nan
6349;BME280;3207;42.648;23.406;2023-05-25T18:33:40;100201.31;;;25.40;nan
6349;BME280;3207;42.648;23.406;2023-05-25T18:36:07;100215.50;;;25.34;nan
6349;BME280;3207;42.648;23.406;2023-05-25T18:38:34;100210.97;;;25.28;nan
6349;BME280;3207;42.648;23.406;2023-05-25T18:41:01;100209.50;;;25.19;nan
6349;BME280;3207;42.648;23.406;2023-05-25T18:43:28;100214.03;;;25.19;nan
6349;BME280;3207;42.648;23.406;2023-05-25T18:45:55;100206.59;;;25.07;nan
6349;BME280;3207;42.648;23.406;2023-05-25T18:48:22;100206.97;;;24.98;nan
6349;BME280;3207;42.648;23.406;2023-05-25T18:50:50;100216.41;;;24.94;nan
6349;BME280;3207;42.648;23.406;2023-05-25T18:53:17;100209.16;;;24.88;nan
6349;BME280;3207;42.648;23.406;2023-05-25T18:55:44;100221.28;;;24.84;nan
6349;BME280;3207;42.648;23.406;2023-05-25T18:58:11;100230.28;;;24.76;nan
6349;BME280;3207;42.648;23.406;2023-05-25T19:00:38;100229.03;;;24.72;nan
6349;BME280;3207;42.648;23.406;2023-05-25T19:03:04;100221.44;;;24.75;nan
6349;BME280;3207;42.648;23.406;2023-05-25T19:05:31;100239.53;;;24.73;nan
6349;BME280;3207;42.648;23.406;2023-05-25T19:07:59;100244.03;;;24.66;nan
6349;BME280;3207;42.648;23.406;2023-05-25T19:10:26;100241.72;;;24.63;nan
6349;BME280;3207;42.648;23.406;2023-05-25T19:12:53;100269.66;;;24.54;nan
6349;BME280;3207;42.648;23.406;2023-05-25T19:15:20;100249.09;;;24.55;nan
6349;BME280;3207;42.648;23.406;2023-05-25T19:17:47;100257.94;;;24.55;nan
6349;BME280;3207;42.648;23.406;2023-05-25T19:20:14;100251.13;;;24.53;nan
6349;BME280;3207;42.648;23.406;2023-05-25T19:22:44;100258.91;;;24.48;nan
6349;BME280;3207;42.648;23.406;2023-05-25T19:25:12;100282.34;;;24.46;nan
6349;BME280;3207;42.648;23.406;2023-05-25T19:27:39;100274.66;;;24.36;nan
6349;BME280;3207;42.648;23.406;2023-05-25T19:30:06;100267.41;;;24.30;nan
6349;BME280;3207;42.648;23.406;2023-05-25T19:32:33;100270.47;;;24.27;nan
6349;BME280;3207;42.648;23.406;2023-05-25T19:39:53;100274.03;;;24.13;nan
6349;BME280;3207;42.648;23.406;2023-05-25T19:42:21;100288.03;;;24.15;nan
6349;BME280;3207;42.648;23.406;2023-05-25T19:44:48;100329.22;;;24.05;nan
6349;BME280;3207;42.648;23.406;2023-05-25T19:47:15;100289.75;;;24.01;nan
6349;BME280;3207;42.648;23.406;2023-05-25T19:49:42;100282.72;;;23.93;nan
6349;BME280;3207;42.648;23.406;2023-05-25T19:52:08;100292.09;;;23.89;nan
6349;BME280;3207;42.648;23.406;2023-05-25T19:57:04;100295.34;;;23.85;nan
6349;BME280;3207;42.648;23.406;2023-05-25T19:59:32;100286.25;;;23.79;nan
6349;BME280;3207;42.648;23.406;2023-05-25T20:02:01;100294.91;;;23.81;nan
6349;BME280;3207;42.648;23.406;2023-05-25T20:04:28;100294.44;;;23.78;nan
6349;BME280;3207;42.648;23.406;2023-05-25T20:06:55;100297.09;;;23.56;nan
6349;BME280;3207;42.648;23.406;2023-05-25T20:09:22;100302.91;;;23.60;nan
6349;BME280;3207;42.648;23.406;2023-05-25T20:11:54;100305.38;;;23.61;nan
6349;BME280;3207;42.648;23.406;2023-05-25T20:14:21;100314.22;;;23.62;nan
6349;BME280;3207;42.648;23.406;2023-05-25T20:19:15;100316.50;;;23.65;nan
6349;BME280;3207;42.648;23.406;2023-05-25T20:21:43;100321.19;;;23.63;nan
6349;BME280;3207;42.648;23.406;2023-05-25T20:24:10;100312.94;;;23.58;nan
6349;BME280;3207;42.648;23.406;2023-05-25T20:26:37;100320.94;;;23.58;nan
6349;BME280;3207;42.648;23.406;2023-05-25T20:29:03;100324.97;;;23.54;nan
6349;BME280;3207;42.648;23.406;2023-05-25T20:31:30;100308.03;;;23.47;nan
6349;BME280;3207;42.648;23.406;2023-05-25T20:33:59;100310.81;;;23.53;nan
6349;BME280;3207;42.648;23.406;2023-05-25T20:41:18;100324.44;;;23.44;nan
6349;BME280;3207;42.648;23.406;2023-05-25T20:43:45;100330.59;;;23.44;nan
6349;BME280;3207;42.648;23.406;2023-05-25T20:46:12;100321.50;;;23.39;nan
6349;BME280;3207;42.648;23.406;2023-05-25T20:48:39;100323.53;;;23.36;nan
6349;BME280;3207;42.648;23.406;2023-05-25T20:53:35;100316.81;;;23.41;nan
6349;BME280;3207;42.648;23.406;2023-05-25T20:56:02;100301.72;;;23.33;nan
6349;BME280;3207;42.648;23.406;2023-05-25T20:58:29;100311.13;;;23.29;nan
6349;BME280;3207;42.648;23.406;2023-05-25T21:03:22;100307.44;;;23.15;nan
6349;BME280;3207;42.648;23.406;2023-05-25T21:05:49;100352.81;;;23.15;nan
6349;BME280;3207;42.648;23.406;2023-05-25T21:08:17;100316.56;;;23.06;nan
6349;BME280;3207;42.648;23.406;2023-05-25T21:10:44;100305.34;;;22.96;nan
6349;BME280;3207;42.648;23.406;2023-05-25T21:13:11;100304.53;;;22.95;nan